Time;durP1;ratioP1;P1;durP2;ratioP2;P2;SDS_P1;SDS_P2;PMS_P1;PMS_P2;Temp;Humidity;BMP_temperature;BMP_pressure;BME280_temperature;BME280_humidity;BME280_pressure;Samples;Min_cycle;Max_cycle;Signal;HPM_P1;HPM_P2
2021/12/12 00:01:12;;;;;;;28.15;11.12;;;;;;;1.38;72.40;98485.91;4472501;32;20167;-82
2021/12/12 00:03:40;;;;;;;26.25;11.05;;;;;;;1.40;72.18;98487.62;4472657;32;20077;-81
2021/12/12 00:06:13;;;;;;;24.52;10.30;;;;;;;1.33;72.24;98495.56;4472226;32;20127;-82
2021/12/12 00:08:41;;;;;;;23.92;10.43;;;;;;;1.52;71.52;98485.59;4471346;32;20122;-82
2021/12/12 00:11:09;;;;;;;25.83;11.65;;;;;;;1.48;71.16;98485.72;4471318;32;20109;-82
2021/12/12 00:13:51;;;;;;;24.75;10.75;;;;;;;1.56;71.32;98491.59;4472430;32;20076;-82
2021/12/12 00:16:16;;;;;;;26.15;11.10;;;;;;;1.86;69.92;98494.38;4472522;32;20119;-82
2021/12/12 00:18:42;;;;;;;26.50;10.48;;;;;;;1.93;69.67;98501.09;4472389;32;20089;-82
2021/12/12 00:21:09;;;;;;;26.85;11.32;;;;;;;1.79;70.46;98500.59;4472203;32;20107;-81
2021/12/12 00:23:35;;;;;;;25.90;11.25;;;;;;;1.82;70.24;98509.16;4472362;32;20140;-81
2021/12/12 00:26:02;;;;;;;27.70;10.93;;;;;;;1.80;70.29;98505.75;4471131;32;20345;-82
2021/12/12 00:28:28;;;;;;;25.35;10.02;;;;;;;1.75;70.42;98508.44;4472393;32;20089;-81
2021/12/12 00:30:57;;;;;;;29.00;11.65;;;;;;;1.62;70.72;98517.41;4472305;32;20116;-82
2021/12/12 00:33:24;;;;;;;26.40;10.32;;;;;;;1.76;70.48;98501.53;4472335;32;20138;-82
2021/12/12 00:35:50;;;;;;;27.83;11.12;;;;;;;1.61;70.70;98504.47;4472508;32;20114;-81
2021/12/12 00:38:21;;;;;;;26.00;11.30;;;;;;;1.84;69.78;98507.37;4471333;32;20501;-81
2021/12/12 00:40:51;;;;;;;25.00;10.07;;;;;;;1.50;70.84;98510.75;4472255;32;20099;-81
2021/12/12 00:43:24;;;;;;;24.40;10.15;;;;;;;1.79;70.15;98495.41;4472290;32;20088;-81
2021/12/12 00:45:52;;;;;;;26.92;10.65;;;;;;;1.48;70.86;98490.91;4470859;32;20156;-81
2021/12/12 00:48:17;;;;;;;26.02;10.65;;;;;;;1.54;70.52;98490.75;4472214;32;20112;-82
2021/12/12 00:50:44;;;;;;;27.95;11.12;;;;;;;1.69;70.54;98498.19;4472237;32;20138;-82
2021/12/12 00:53:11;;;;;;;25.45;11.40;;;;;;;1.37;71.37;98510.19;4458194;32;20195;-82
2021/12/12 00:55:38;;;;;;;26.02;10.20;;;;;;;1.27;72.06;98497.44;4472262;32;20097;-82
2021/12/12 00:58:10;;;;;;;24.57;10.87;;;;;;;1.46;70.98;98493.53;4472199;32;20127;-83
2021/12/12 01:00:41;;;;;;;28.25;12.55;;;;;;;1.41;71.34;98502.31;4470890;32;20106;-82
2021/12/12 01:03:09;;;;;;;32.60;12.95;;;;;;;1.04;72.46;98513.47;4471222;32;20135;-82
2021/12/12 01:05:35;;;;;;;27.98;11.38;;;;;;;1.30;71.83;98513.78;4471903;32;20120;-81
2021/12/12 01:08:01;;;;;;;30.77;12.77;;;;;;;1.22;71.98;98514.81;4472079;32;20115;-82
2021/12/12 01:10:37;;;;;;;28.02;10.63;;;;;;;1.05;72.29;98517.78;4472049;32;20088;-82
2021/12/12 01:13:04;;;;;;;32.70;12.60;;;;;;;1.08;72.39;98535.88;4472078;32;20142;-82
2021/12/12 01:15:35;;;;;;;31.33;12.63;;;;;;;1.09;72.35;98537.59;4471999;32;20097;-82
2021/12/12 01:18:09;;;;;;;31.77;13.32;;;;;;;1.14;72.34;98535.75;4472085;32;20455;-82
2021/12/12 01:21:03;;;;;;;28.17;11.18;;;;;;;1.33;71.27;98537.09;4471960;32;20436;-82
2021/12/12 01:23:36;;;;;;;30.40;13.98;;;;;;;1.35;71.08;98532.72;4470813;32;20072;-82
2021/12/12 01:26:05;;;;;;;29.77;12.70;;;;;;;1.05;72.33;98536.81;4470713;32;20124;-82
2021/12/12 01:28:32;;;;;;;36.22;13.68;;;;;;;0.96;72.55;98524.84;4472202;32;20093;-81
2021/12/12 01:31:00;;;;;;;32.63;13.30;;;;;;;1.28;71.50;98540.66;4471082;32;20579;-82
2021/12/12 01:33:33;;;;;;;31.90;13.88;;;;;;;1.03;71.63;98538.56;4472032;32;20092;-82
2021/12/12 01:36:25;;;;;;;29.65;12.75;;;;;;;1.17;71.70;98539.13;4471791;32;20101;-81
2021/12/12 01:38:54;;;;;;;29.37;12.45;;;;;;;1.18;71.54;98534.81;4472118;32;20093;-82
2021/12/12 01:41:27;;;;;;;;;;;;;;;1.18;71.90;98537.41;4472395;32;20084;-82
2021/12/12 01:43:55;;;;;;;30.67;12.32;;;;;;;1.13;71.48;98539.25;4472091;32;19964;-82
2021/12/12 01:46:25;;;;;;;31.50;13.85;;;;;;;1.20;71.28;98533.03;4470540;32;20162;-82
2021/12/12 01:49:05;;;;;;;36.53;13.88;;;;;;;1.00;71.87;98545.56;4471772;32;20101;-82
2021/12/12 01:51:30;;;;;;;30.25;12.32;;;;;;;1.07;72.15;98541.97;4470733;32;20084;-82
2021/12/12 01:53:59;;;;;;;34.58;13.60;;;;;;;0.82;72.85;98541.59;4470887;32;20102;-82
2021/12/12 01:56:33;;;;;;;29.02;12.37;;;;;;;0.85;73.08;98546.69;4471872;32;20092;-82
2021/12/12 01:59:01;;;;;;;34.00;13.93;;;;;;;0.81;72.41;98545.91;4471990;32;20127;-81
2021/12/12 02:01:34;;;;;;;35.50;14.57;;;;;;;0.92;72.07;98543.97;4471530;32;20160;-81
2021/12/12 02:04:09;;;;;;;32.03;13.00;;;;;;;0.98;72.01;98545.56;4471731;32;20096;-81
2021/12/12 02:06:35;;;;;;;29.10;11.45;;;;;;;0.73;73.03;98547.78;4470250;32;20113;-81
2021/12/12 02:09:03;;;;;;;33.05;12.50;;;;;;;0.74;73.18;98545.19;4470613;32;20151;-81
2021/12/12 02:11:32;;;;;;;29.45;13.52;;;;;;;0.80;72.97;98538.19;4470508;32;20085;-81
2021/12/12 02:14:01;;;;;;;32.58;12.85;;;;;;;0.93;72.67;98547.44;4471350;32;20080;-81
2021/12/12 02:16:27;;;;;;;33.92;14.32;;;;;;;0.93;72.19;98547.44;4471552;32;20152;-81
2021/12/12 02:18:56;;;;;;;35.75;13.98;;;;;;;1.05;71.67;98536.81;4471632;32;20407;-81
2021/12/12 02:21:28;;;;;;;35.22;14.07;;;;;;;1.06;71.93;98530.72;4457796;32;20183;-81
2021/12/12 02:37:42;;;;;;;35.45;14.15;;;;;;;0.90;72.66;98516.34;4471520;32;20156;-82
2021/12/12 02:40:12;;;;;;;35.50;13.70;;;;;;;0.95;72.59;98522.31;4471454;32;20516;-81
2021/12/12 02:42:38;;;;;;;38.13;12.95;;;;;;;1.09;71.49;98532.41;4471489;32;20077;-82
2021/12/12 02:45:07;;;;;;;31.98;13.77;;;;;;;1.04;71.80;98534.22;4471314;32;20136;-81
2021/12/12 02:47:34;;;;;;;35.40;13.65;;;;;;;0.77;73.18;98521.78;4471348;32;20175;-82
2021/12/12 02:50:13;;;;;;;37.20;14.77;;;;;;;1.02;71.96;98529.06;4471478;32;20100;-82
2021/12/12 02:52:45;;;;;;;32.20;12.57;;;;;;;1.17;71.37;98533.94;4471386;32;20169;-82
2021/12/12 02:55:17;;;;;;;35.28;12.77;;;;;;;1.15;71.45;98532.28;4471325;32;20132;-82
2021/12/12 02:57:43;;;;;;;33.03;14.05;;;;;;;1.28;70.76;98554.50;4471231;32;20120;-82
2021/12/12 03:00:12;;;;;;;35.08;13.05;;;;;;;1.41;70.33;98541.25;4471261;32;20123;-82
2021/12/12 03:02:45;;;;;;;33.47;12.73;;;;;;;1.34;70.64;98545.72;4470021;32;20165;-82
2021/12/12 03:05:12;;;;;;;29.87;12.63;;;;;;;1.31;70.80;98551.84;4471537;32;20110;-82
2021/12/12 03:07:37;;;;;;;33.65;13.27;;;;;;;1.66;69.28;98549.34;4469981;32;20116;-82
2021/12/12 03:10:05;;;;;;;33.22;12.98;;;;;;;1.67;69.19;98541.53;4471434;32;20096;-82
2021/12/12 03:12:34;;;;;;;30.40;13.15;;;;;;;1.24;70.19;98550.25;4470321;32;20542;-82
2021/12/12 03:15:07;;;;;;;35.97;14.87;;;;;;;1.22;70.94;98548.56;4471281;32;20138;-82
2021/12/12 03:17:32;;;;;;;30.52;12.40;;;;;;;1.46;69.72;98544.59;4471144;32;20127;-82
2021/12/12 03:20:03;;;;;;;29.65;11.65;;;;;;;1.37;69.71;98550.81;4471012;32;20093;-81
2021/12/12 03:22:29;;;;;;;33.58;12.98;;;;;;;1.29;69.99;98550.16;4471119;32;20436;-82
2021/12/12 03:24:55;;;;;;;33.20;12.65;;;;;;;1.20;70.39;98552.91;4470755;32;20084;-82
2021/12/12 03:27:21;;;;;;;31.48;12.43;;;;;;;1.30;70.02;98547.53;4470272;32;20506;-82
2021/12/12 03:29:48;;;;;;;35.35;13.32;;;;;;;1.18;70.44;98560.75;4471016;32;20093;-79
2021/12/12 03:32:17;;;;;;;31.52;12.73;;;;;;;1.46;69.39;98565.38;4470899;32;20100;-82
2021/12/12 03:34:46;;;;;;;33.03;13.68;;;;;;;1.09;70.34;98572.16;4470984;32;20172;-82
2021/12/12 03:37:14;;;;;;;29.10;12.85;;;;;;;1.31;69.68;98575.19;4470843;32;20173;-81
2021/12/12 03:39:42;;;;;;;31.23;11.27;;;;;;;1.53;69.04;98582.53;4469589;32;20131;-81
2021/12/12 03:42:11;;;;;;;34.85;12.68;;;;;;;1.04;70.49;98591.28;4469548;32;20436;-81
2021/12/12 03:44:38;;;;;;;31.20;12.82;;;;;;;0.92;71.03;98602.75;4470792;32;20076;-82
2021/12/12 03:47:26;;;;;;;31.70;13.45;;;;;;;1.07;70.78;98597.28;4470605;32;20099;-82
2021/12/12 03:49:52;;;;;;;30.10;13.13;;;;;;;1.15;70.41;98603.16;4469420;32;20495;-82
2021/12/12 03:52:20;;;;;;;28.48;10.77;;;;;;;1.45;68.88;98600.88;4470540;32;20089;-81
2021/12/12 03:54:47;;;;;;;30.23;12.25;;;;;;;1.12;69.74;98610.16;4470916;32;20500;-81
2021/12/12 03:57:16;;;;;;;33.28;13.52;;;;;;;1.18;69.62;98617.84;4470769;32;20160;-82
2021/12/12 03:59:41;;;;;;;28.67;11.82;;;;;;;0.79;70.73;98622.88;4470496;32;20146;-82
2021/12/12 04:02:06;;;;;;;34.20;13.18;;;;;;;1.04;70.02;98620.69;4470328;32;20093;-82
2021/12/12 04:04:36;;;;;;;30.55;12.55;;;;;;;1.20;69.19;98623.84;4470310;32;20076;-81
2021/12/12 04:07:09;;;;;;;32.03;12.75;;;;;;;1.40;68.50;98633.84;4468859;32;20177;-82
2021/12/12 04:09:35;;;;;;;31.23;11.57;;;;;;;1.09;69.39;98631.84;4469257;32;20422;-81
2021/12/12 04:12:05;;;;;;;29.90;11.93;;;;;;;0.98;69.69;98633.75;4470370;32;20126;-81
2021/12/12 04:14:30;;;;;;;31.40;12.60;;;;;;;1.24;68.93;98633.28;4469069;32;20214;-82
2021/12/12 04:16:59;;;;;;;30.02;11.85;;;;;;;1.36;68.43;98629.59;4468995;32;20108;-82
2021/12/12 04:19:24;;;;;;;30.35;11.93;;;;;;;1.34;67.99;98621.84;4470351;32;20166;-82
2021/12/12 04:21:50;;;;;;;33.15;12.50;;;;;;;1.04;68.93;98630.22;4468955;32;20097;-82
2021/12/12 04:24:27;;;;;;;33.20;12.93;;;;;;;0.84;70.05;98643.53;4470111;32;20085;-81
2021/12/12 04:26:53;;;;;;;32.80;12.13;;;;;;;0.92;69.86;98642.50;4468818;32;20126;-82
2021/12/12 04:29:25;;;;;;;30.33;12.30;;;;;;;1.07;69.26;98641.38;4470047;32;20131;-82
2021/12/12 04:31:53;;;;;;;35.22;13.05;;;;;;;0.87;69.54;98653.84;4468949;32;20538;-82
2021/12/12 04:34:21;;;;;;;31.27;12.60;;;;;;;1.07;69.08;98656.94;4470163;32;20111;-83
2021/12/12 04:36:47;;;;;;;37.03;13.88;;;;;;;1.04;68.68;98662.19;4470318;32;20450;-82
2021/12/12 04:39:19;;;;;;;28.95;11.45;;;;;;;0.90;69.23;98649.47;4472264;32;20164;-82
2021/12/12 04:41:46;;;;;;;33.05;11.73;;;;;;;0.87;68.87;98654.72;4472514;32;20096;-82
2021/12/12 04:44:11;;;;;;;32.83;11.80;;;;;;;0.82;69.14;98647.91;4472249;32;20107;-82
2021/12/12 04:49:57;;;;;;;30.33;12.00;;;;;;;0.63;69.85;98655.97;4471238;32;20122;-82
2021/12/12 04:52:34;;;;;;;33.08;13.05;;;;;;;0.62;69.93;98659.47;4471081;32;20119;-82
2021/12/12 04:55:09;;;;;;;26.73;10.73;;;;;;;0.58;69.36;98640.53;4472118;32;20577;-82
2021/12/12 04:58:06;;;;;;;34.05;13.38;;;;;;;0.36;70.45;98655.53;4470889;32;20100;-82
2021/12/12 05:00:39;;;;;;;30.48;13.23;;;;;;;0.46;70.46;98643.28;4438875;32;20188;-82
2021/12/12 05:03:14;;;;;;;30.83;12.18;;;;;;;0.52;70.21;98637.16;4438951;32;20084;-82
2021/12/12 05:05:48;;;;;;;29.27;11.48;;;;;;;0.40;70.70;98646.00;4425603;32;20167;-82
2021/12/12 05:08:40;;;;;;;33.33;12.65;;;;;;;0.41;70.81;98634.75;4438889;32;20616;-82
2021/12/12 05:11:09;;;;;;;34.30;12.85;;;;;;;0.37;71.09;98646.91;4377929;32;20119;-82
2021/12/12 05:13:41;;;;;;;37.05;14.90;;;;;;;0.31;70.83;98654.78;4377791;32;20482;-82
2021/12/12 05:16:11;;;;;;;34.25;11.93;;;;;;;0.47;70.41;98647.62;4377965;32;20493;-81
2021/12/12 05:18:48;;;;;;;29.15;10.88;;;;;;;0.35;70.67;98658.19;4377839;32;20162;-81
2021/12/12 05:21:17;;;;;;;39.30;13.68;;;;;;;0.33;70.70;98647.00;4365537;32;20593;-81
2021/12/12 05:23:48;;;;;;;37.42;14.13;;;;;;;0.28;71.17;98652.22;4378149;32;20086;-81
2021/12/12 05:26:17;;;;;;;34.65;13.02;;;;;;;0.22;71.05;98662.69;4365482;32;20099;-82
2021/12/12 05:28:48;;;;;;;33.90;11.65;;;;;;;0.45;70.71;98664.91;4365575;32;20572;-81
2021/12/12 05:31:15;;;;;;;36.03;14.18;;;;;;;0.45;70.44;98667.50;4365540;32;20736;-81
2021/12/12 05:33:41;;;;;;;33.28;12.40;;;;;;;0.47;70.08;98660.56;4378037;32;20125;-82
2021/12/12 05:36:09;;;;;;;33.88;13.05;;;;;;;0.59;69.93;98662.94;4365146;32;20099;-82
2021/12/12 05:38:35;;;;;;;;;;;;;;;0.68;69.52;98664.56;4393196;32;20450;-82
2021/12/12 05:41:00;;;;;;;34.63;12.88;;;;;;;0.59;69.56;98664.69;4392922;32;20043;-82
2021/12/12 05:43:26;;;;;;;33.97;12.20;;;;;;;0.65;69.48;98662.00;4380176;32;20566;-82
2021/12/12 05:45:52;;;;;;;31.42;11.60;;;;;;;0.50;69.68;98662.25;4392648;32;20164;-82
2021/12/12 05:48:21;;;;;;;37.13;13.70;;;;;;;0.64;69.71;98656.84;4428036;32;20120;-83
2021/12/12 05:50:46;;;;;;;29.02;11.73;;;;;;;0.72;69.16;98662.75;4471585;32;20101;-82
2021/12/12 05:53:14;;;;;;;33.15;12.63;;;;;;;0.77;68.94;98664.41;4471786;32;20128;-84
2021/12/12 05:55:40;;;;;;;32.35;11.48;;;;;;;0.88;68.38;98656.41;4470422;32;20467;-84
2021/12/12 05:58:08;;;;;;;32.47;11.93;;;;;;;0.87;68.29;98667.69;4471655;32;20508;-83
2021/12/12 06:00:38;;;;;;;;;;;;;;;0.63;68.63;98661.16;4472038;32;20111;-83
2021/12/12 06:03:08;;;;;;;29.37;11.88;;;;;;;0.70;68.23;98669.72;4470805;32;20323;-83
2021/12/12 06:05:33;;;;;;;29.08;10.77;;;;;;;0.68;68.60;98677.50;4471590;32;20089;-83
2021/12/12 06:07:59;;;;;;;28.98;10.90;;;;;;;0.77;68.01;98679.97;4470433;32;20133;-83
2021/12/12 06:10:25;;;;;;;29.92;12.10;;;;;;;0.73;67.95;98686.06;4470446;32;20108;-82
2021/12/12 06:12:51;;;;;;;29.20;10.48;;;;;;;0.67;68.38;98682.72;4470505;32;20108;-82
2021/12/12 06:15:18;;;;;;;27.62;11.68;;;;;;;0.82;67.55;98684.22;4471530;32;20110;-82
2021/12/12 06:17:46;;;;;;;27.30;10.30;;;;;;;0.80;67.72;98679.03;4470409;32;20181;-82
2021/12/12 06:20:12;;;;;;;29.42;11.18;;;;;;;0.73;67.83;98686.06;4470701;32;20117;-82
2021/12/12 06:22:38;;;;;;;30.90;11.55;;;;;;;0.89;67.52;98696.16;4471890;32;20395;-82
2021/12/12 06:25:06;;;;;;;28.52;9.65;;;;;;;0.70;67.76;98688.72;4471505;32;20107;-82
2021/12/12 06:27:31;;;;;;;;;;;;;;;0.62;68.19;98684.50;4471831;32;20114;-82
2021/12/12 06:29:56;;;;;;;24.70;9.55;;;;;;;0.61;67.92;98694.03;4471682;32;20000;-82
2021/12/12 06:32:22;;;;;;;27.27;9.10;;;;;;;0.44;68.63;98699.47;4471469;32;20080;-82
2021/12/12 06:34:50;;;;;;;22.30;9.15;;;;;;;0.44;68.79;98690.84;4471452;32;20141;-82
2021/12/12 06:37:16;;;;;;;24.60;9.57;;;;;;;0.54;68.35;98693.28;4457221;32;20158;-82
2021/12/12 06:39:43;;;;;;;26.33;9.98;;;;;;;0.48;68.17;98711.50;4471407;32;20482;-82
2021/12/12 06:42:11;;;;;;;23.03;8.90;;;;;;;0.54;68.25;98695.00;4470567;32;20076;-83
2021/12/12 06:44:39;;;;;;;22.10;8.75;;;;;;;0.54;67.82;98713.16;4471589;32;20148;-83
2021/12/12 06:47:09;;;;;;;25.27;10.23;;;;;;;0.43;68.39;98697.78;4471344;32;20445;-81
2021/12/12 06:49:36;;;;;;;25.62;9.35;;;;;;;0.51;68.38;98701.09;4471318;32;20119;-81
2021/12/12 06:52:08;;;;;;;23.17;9.05;;;;;;;0.61;67.98;98693.19;4470172;32;20115;-82
2021/12/12 06:54:33;;;;;;;25.02;8.77;;;;;;;0.72;67.59;98686.94;4470160;32;20068;-81
2021/12/12 06:57:03;;;;;;;22.33;8.07;;;;;;;0.74;67.42;98687.78;4457071;32;20601;-81
2021/12/12 06:59:31;;;;;;;25.85;9.57;;;;;;;0.59;67.69;98695.81;4471443;32;20470;-81
2021/12/12 07:01:58;;;;;;;25.35;8.95;;;;;;;0.82;67.32;98690.25;4484565;32;20106;-81
2021/12/12 07:04:24;;;;;;;22.37;9.27;;;;;;;0.65;67.71;98692.25;4479975;32;20443;-81
2021/12/12 07:06:54;;;;;;;20.25;7.78;;;;;;;0.86;67.08;98698.84;4456233;32;20121;-78
2021/12/12 07:09:20;;;;;;;22.35;8.27;;;;;;;0.59;68.22;98698.41;4470915;32;20816;-80
2021/12/12 07:11:46;;;;;;;22.70;8.38;;;;;;;0.78;67.79;98691.19;4469657;32;20081;-80
2021/12/12 07:14:13;;;;;;;23.50;7.75;;;;;;;0.62;68.14;98694.88;4474191;32;20126;-80
2021/12/12 07:16:40;;;;;;;24.50;8.48;;;;;;;0.49;68.72;98713.22;4486593;31;20108;-81
2021/12/12 07:19:07;;;;;;;21.60;7.80;;;;;;;0.54;68.61;98707.97;4485095;32;20131;-78
2021/12/12 07:21:34;;;;;;;20.60;8.25;;;;;;;0.93;67.45;98701.28;4470963;31;20100;-78
2021/12/12 07:24:02;;;;;;;21.47;7.93;;;;;;;0.95;67.37;98689.16;4470920;32;20153;-78
2021/12/12 07:26:28;;;;;;;18.02;7.07;;;;;;;0.84;67.40;98688.47;4470793;32;20170;-78
2021/12/12 07:28:55;;;;;;;22.42;7.32;;;;;;;0.88;67.12;98703.09;4470989;32;20476;-79
2021/12/12 07:31:24;;;;;;;21.27;8.50;;;;;;;0.91;66.98;98695.28;4472546;32;20117;-78
2021/12/12 07:33:53;;;;;;;20.77;7.60;;;;;;;1.05;66.73;98694.19;4484689;32;20555;-78
2021/12/12 07:36:19;;;;;;;21.65;8.63;;;;;;;0.83;67.07;98689.37;4477371;32;20170;-77
2021/12/12 07:38:48;;;;;;;21.87;8.32;;;;;;;1.10;66.45;98692.34;4486560;31;20096;-79
2021/12/12 07:41:14;;;;;;;21.08;7.53;;;;;;;0.93;67.10;98688.31;4485314;32;20097;-78
2021/12/12 07:43:40;;;;;;;22.55;8.48;;;;;;;1.13;65.97;98695.75;4485118;32;20088;-77
2021/12/12 07:46:06;;;;;;;17.58;7.10;;;;;;;1.03;66.44;98688.19;4485021;32;20113;-79
2021/12/12 07:48:32;;;;;;;21.50;7.82;;;;;;;1.06;66.56;98699.31;4486495;31;20159;-79
2021/12/12 07:50:59;;;;;;;19.75;7.45;;;;;;;1.44;65.38;98717.69;4481291;32;20115;-79
2021/12/12 07:53:26;;;;;;;18.00;7.22;;;;;;;1.24;65.41;98703.34;4470795;32;20072;-79
2021/12/12 07:55:53;;;;;;;20.27;7.47;;;;;;;1.38;64.78;98708.28;4470760;32;20157;-78
2021/12/12 07:58:19;;;;;;;18.40;7.20;;;;;;;1.28;65.36;98707.59;4471037;32;20417;-79
2021/12/12 08:00:47;;;;;;;22.35;7.35;;;;;;;1.28;65.03;98707.59;4469325;32;20089;-79
2021/12/12 08:03:14;;;;;;;19.50;7.97;;;;;;;1.06;65.75;98709.69;4468902;32;20586;-79
2021/12/12 08:05:40;;;;;;;20.02;7.93;;;;;;;1.36;64.79;98713.50;4469903;32;20104;-79
2021/12/12 08:08:10;;;;;;;20.50;7.35;;;;;;;1.46;64.51;98693.41;4468186;32;20108;-79
2021/12/12 08:10:37;;;;;;;18.62;7.30;;;;;;;1.22;65.05;98704.25;4470447;32;20081;-79
2021/12/12 08:13:03;;;;;;;18.35;6.78;;;;;;;1.41;64.13;98697.84;4471772;32;20134;-79
2021/12/12 08:15:29;;;;;;;21.42;7.70;;;;;;;1.22;64.80;98718.09;4471201;32;20150;-79
2021/12/12 08:18:00;;;;;;;16.40;7.45;;;;;;;1.14;65.24;98712.16;4471304;32;20096;-79
2021/12/12 08:20:26;;;;;;;16.85;6.62;;;;;;;1.32;64.80;98705.81;4472388;32;20092;-79
2021/12/12 08:22:52;;;;;;;19.80;6.93;;;;;;;1.34;64.46;98720.44;4472428;32;20084;-79
2021/12/12 08:25:19;;;;;;;18.12;6.80;;;;;;;1.45;64.31;98728.06;4471246;32;20111;-79
2021/12/12 08:27:45;;;;;;;19.73;7.83;;;;;;;1.27;64.67;98723.19;4472256;32;20735;-79
2021/12/12 08:30:13;;;;;;;14.93;6.47;;;;;;;1.26;64.67;98724.09;4472393;32;20132;-79
2021/12/12 08:32:39;;;;;;;;;;;;;;;1.11;65.13;98733.00;4471464;32;20123;-79
2021/12/12 08:35:06;;;;;;;20.42;7.20;;;;;;;1.21;64.69;98720.72;4472320;32;19996;-79
2021/12/12 08:37:32;;;;;;;15.77;6.18;;;;;;;1.51;64.41;98724.50;4472181;32;20088;-79
2021/12/12 08:39:58;;;;;;;18.62;7.62;;;;;;;1.49;64.03;98731.47;4471073;32;20432;-79
2021/12/12 08:42:26;;;;;;;18.40;6.85;;;;;;;1.70;63.61;98731.03;4472234;32;20116;-79
2021/12/12 08:44:53;;;;;;;14.93;7.22;;;;;;;1.60;63.80;98729.47;4471118;32;20101;-79
2021/12/12 08:47:19;;;;;;;18.25;6.85;;;;;;;1.51;64.22;98724.50;4471071;32;20195;-79
2021/12/12 08:49:45;;;;;;;17.98;6.35;;;;;;;1.62;64.08;98724.28;4472145;32;20081;-79
2021/12/12 08:52:17;;;;;;;14.18;5.53;;;;;;;1.72;63.57;98718.88;4471076;32;20111;-79
2021/12/12 08:54:45;;;;;;;16.75;6.55;;;;;;;1.67;63.41;98725.88;4472225;32;20092;-79
2021/12/12 08:57:20;;;;;;;;;;;;;;;1.61;63.47;98731.22;4472512;32;20088;-79
2021/12/12 08:59:47;;;;;;;15.60;6.25;;;;;;;1.42;63.93;98724.66;4472169;32;20672;-79
2021/12/12 09:02:15;;;;;;;15.37;6.13;;;;;;;1.60;63.64;98721.69;4472052;32;20111;-79
2021/12/12 09:04:50;;;;;;;17.52;5.93;;;;;;;1.70;63.26;98709.38;4472073;32;20538;-79
2021/12/12 09:07:23;;;;;;;17.45;6.43;;;;;;;1.81;62.87;98720.41;4470517;32;20157;-79
2021/12/12 09:10:12;;;;;;;16.37;6.22;;;;;;;1.93;62.55;98727.97;4470978;32;20081;-79
2021/12/12 09:12:41;;;;;;;16.60;6.85;;;;;;;2.08;62.09;98721.59;4470838;32;20432;-79
2021/12/12 09:15:26;;;;;;;17.77;6.22;;;;;;;2.08;61.74;98711.19;4470863;32;20369;-79
2021/12/12 09:17:55;;;;;;;16.80;5.97;;;;;;;2.37;60.99;98715.75;4470969;32;20135;-79
2021/12/12 09:20:33;;;;;;;14.30;5.80;;;;;;;2.53;60.26;98715.38;4470817;32;20085;-79
2021/12/12 09:23:06;;;;;;;17.33;6.35;;;;;;;2.39;60.46;98707.91;4470657;32;20076;-79
2021/12/12 09:25:41;;;;;;;15.60;5.97;;;;;;;2.30;60.67;98713.34;4471434;32;20126;-79
2021/12/12 09:28:09;;;;;;;17.25;6.62;;;;;;;2.11;60.99;98723.28;4472046;32;20093;-79
2021/12/12 09:30:36;;;;;;;14.98;5.45;;;;;;;2.31;61.04;98709.84;4471819;32;20161;-79
2021/12/12 09:33:18;;;;;;;17.77;5.95;;;;;;;2.25;61.22;98712.59;4472163;32;20081;-79
2021/12/12 09:36:05;;;;;;;17.35;6.40;;;;;;;2.08;61.75;98707.75;4470779;32;20108;-79
2021/12/12 09:38:40;;;;;;;16.77;6.25;;;;;;;2.15;61.66;98711.94;4470919;32;20451;-79
2021/12/12 09:41:45;;;;;;;15.90;5.68;;;;;;;2.44;61.01;98703.47;4457907;32;20080;-79
2021/12/12 09:44:51;;;;;;;15.35;6.28;;;;;;;2.51;60.38;98701.56;4438490;32;20484;-79
2021/12/12 09:54:02;;;;;;;14.25;5.30;;;;;;;2.27;61.11;98697.81;4407933;32;20184;-79
2021/12/12 09:56:43;;;;;;;14.55;5.30;;;;;;;2.49;60.69;98695.56;4407800;32;20200;-79
2021/12/12 09:59:28;;;;;;;13.48;5.05;;;;;;;2.56;60.39;98716.19;4408005;32;20485;-79
2021/12/12 10:02:06;;;;;;;13.55;4.70;;;;;;;2.50;60.56;98705.94;4408029;32;20121;-80
2021/12/12 10:04:42;;;;;;;13.15;4.53;;;;;;;2.65;59.84;98709.06;4395366;32;20152;-79
2021/12/12 10:07:21;;;;;;;13.80;4.97;;;;;;;2.85;59.28;98706.81;4394851;32;20116;-79
2021/12/12 10:09:55;;;;;;;15.98;5.12;;;;;;;3.00;59.13;98715.16;4407841;32;20144;-79
2021/12/12 10:12:25;;;;;;;14.93;5.32;;;;;;;3.05;58.91;98703.75;4407612;32;20110;-79
2021/12/12 10:15:00;;;;;;;14.18;4.87;;;;;;;2.67;59.84;98697.72;4407686;32;20125;-79
2021/12/12 10:17:31;;;;;;;15.75;5.60;;;;;;;2.73;59.70;98712.34;4407689;32;20100;-79
2021/12/12 10:19:59;;;;;;;13.40;4.87;;;;;;;2.55;60.18;98711.03;4410633;32;20164;-79
2021/12/12 10:22:28;;;;;;;;;;;;;;;2.98;58.96;98698.75;4422412;32;20140;-80
2021/12/12 10:25:08;;;;;;;14.45;5.15;;;;;;;2.98;58.74;98698.75;4422515;32;19965;-83
2021/12/12 10:28:00;;;;;;;12.57;4.25;;;;;;;3.16;58.73;98708.66;4465497;31;20102;-80
2021/12/12 10:30:26;;;;;;;13.35;4.50;;;;;;;2.95;59.55;98700.53;4485673;32;20092;-76
2021/12/12 10:33:02;;;;;;;14.18;5.05;;;;;;;3.39;58.13;98707.22;4485396;32;20133;-80
2021/12/12 10:35:34;;;;;;;12.93;4.47;;;;;;;3.07;58.96;98711.50;4486819;31;20462;-81
2021/12/12 10:38:09;;;;;;;13.77;4.60;;;;;;;3.33;58.32;98714.28;4487104;31;20092;-81
2021/12/12 10:40:48;;;;;;;13.13;4.62;;;;;;;3.42;57.99;98704.50;4486402;32;20127;-79
2021/12/12 10:43:22;;;;;;;13.75;4.60;;;;;;;3.39;57.88;98694.19;4487383;32;20103;-79
2021/12/12 10:45:55;;;;;;;11.45;4.20;;;;;;;3.41;58.04;98698.44;4485874;32;20099;-79
2021/12/12 10:48:28;;;;;;;13.05;4.50;;;;;;;3.74;56.94;98688.00;4485986;32;20069;-80
2021/12/12 10:51:13;;;;;;;11.77;4.57;;;;;;;3.38;57.63;98693.34;4485952;32;20104;-79
2021/12/12 10:53:56;;;;;;;14.10;4.55;;;;;;;3.76;56.66;98700.97;4487045;31;20137;-79
2021/12/12 10:56:28;;;;;;;13.85;4.20;;;;;;;3.72;56.81;98684.59;4486180;32;20076;-79
2021/12/12 10:58:59;;;;;;;11.43;3.87;;;;;;;3.61;57.42;98690.13;4487208;31;20064;-79
2021/12/12 11:01:28;;;;;;;13.93;4.97;;;;;;;3.39;58.31;98696.78;4487338;31;20149;-79
2021/12/12 11:04:17;;;;;;;11.23;4.40;;;;;;;3.28;58.67;98703.16;4486863;31;20104;-80
2021/12/12 11:07:00;;;;;;;11.88;4.32;;;;;;;3.72;57.44;98689.78;4485550;32;20108;-79
2021/12/12 11:09:38;;;;;;;11.20;3.90;;;;;;;3.60;57.44;98691.00;4485938;32;20084;-79
2021/12/12 11:12:10;;;;;;;12.75;4.55;;;;;;;3.85;57.00;98695.50;4486910;31;20165;-79
2021/12/12 11:14:48;;;;;;;13.50;4.65;;;;;;;3.54;57.54;98698.97;4486806;31;20080;-79
2021/12/12 11:17:21;;;;;;;10.70;3.90;;;;;;;3.80;57.01;98713.87;4485817;32;20076;-80
2021/12/12 11:19:50;;;;;;;13.30;4.28;;;;;;;3.59;57.54;98697.09;4485641;32;20152;-79
2021/12/12 11:22:28;;;;;;;12.40;4.25;;;;;;;3.74;57.28;98686.22;4485568;32;20105;-80
2021/12/12 11:25:14;;;;;;;12.77;4.50;;;;;;;3.60;57.56;98693.59;4486706;31;20111;-79
2021/12/12 11:27:51;;;;;;;14.73;4.80;;;;;;;3.39;57.83;98683.78;4485463;32;20148;-79
2021/12/12 11:30:25;;;;;;;11.50;4.03;;;;;;;3.44;58.28;98694.91;4485460;32;20069;-79
2021/12/12 11:32:52;;;;;;;11.63;4.15;;;;;;;3.41;58.14;98688.03;4485392;32;20096;-80
2021/12/12 11:35:22;;;;;;;13.43;4.85;;;;;;;3.69;57.64;98695.94;4485530;32;20123;-79
2021/12/12 11:38:03;;;;;;;12.90;4.28;;;;;;;3.56;57.61;98697.19;4486559;31;20160;-79
2021/12/12 11:40:34;;;;;;;14.63;4.62;;;;;;;3.46;57.70;98696.59;4486730;31;20132;-77
2021/12/12 11:43:03;;;;;;;10.55;3.92;;;;;;;3.50;57.87;98684.34;4485414;32;20103;-77
2021/12/12 11:45:40;;;;;;;10.98;3.50;;;;;;;3.41;58.01;98679.38;4486482;31;20088;-78
2021/12/12 11:48:15;;;;;;;9.90;3.30;;;;;;;3.46;57.71;98693.13;4487812;31;20439;-77
2021/12/12 11:50:46;;;;;;;12.25;4.30;;;;;;;3.57;57.71;98693.66;4488304;31;20438;-77
2021/12/12 11:53:17;;;;;;;10.70;3.72;;;;;;;3.43;58.34;98696.66;4487201;32;20104;-75
2021/12/12 11:55:50;;;;;;;10.73;3.80;;;;;;;3.21;58.84;98701.59;4484158;32;20427;-74
2021/12/12 11:58:41;;;;;;;9.95;3.53;;;;;;;3.62;57.77;98689.19;4488080;31;20092;-75
2021/12/12 12:01:34;;;;;;;13.07;4.55;;;;;;;3.46;58.28;98685.31;4423964;32;20151;-75
2021/12/12 12:04:14;;;;;;;12.18;3.90;;;;;;;3.60;58.25;98693.59;4423379;32;20136;-75
2021/12/12 12:07:13;;;;;;;12.82;4.05;;;;;;;3.41;58.48;98692.41;4395302;32;20110;-76
2021/12/12 12:09:54;;;;;;;11.77;3.92;;;;;;;3.51;58.57;98706.88;4407662;32;20090;-75
2021/12/12 12:12:35;;;;;;;13.18;4.00;;;;;;;3.53;58.48;98689.44;4408353;32;20463;-76